Time;durP1;ratioP1;P1;durP2;ratioP2;P2;SDS_P1;SDS_P2;PMS_P1;PMS_P2;Temp;Humidity;BMP_temperature;BMP_pressure;BME280_temperature;BME280_humidity;BME280_pressure;Samples;Min_cycle;Max_cycle;Signal;HPM_P1;HPM_P2
2022/04/15 00:02:01;;;;;;;6.15;3.67;;;11.10;99.90;;;;;;10330441;28;20049;-87
2022/04/15 00:07:04;;;;;;;7.38;3.03;;;11.00;99.90;;;;;;10320035;28;20045;-87
2022/04/15 00:12:10;;;;;;;7.88;3.13;;;10.90;99.90;;;;;;10326133;28;20047;-87
2022/04/15 00:17:12;;;;;;;10.20;3.35;;;10.80;99.90;;;;;;10328411;28;20836;-87
2022/04/15 00:22:14;;;;;;;7.30;3.50;;;10.80;99.90;;;;;;10324491;28;20141;-87
2022/04/15 00:27:16;;;;;;;6.00;3.33;;;10.70;99.90;;;;;;10304209;28;20132;-87
2022/04/15 00:32:17;;;;;;;5.43;3.65;;;10.70;99.90;;;;;;10320645;28;20050;-87
2022/04/15 00:37:19;;;;;;;6.07;3.33;;;10.50;99.90;;;;;;10338811;28;20373;-87
2022/04/15 00:42:22;;;;;;;8.60;3.80;;;10.40;99.90;;;;;;10328683;28;20046;-87
2022/04/15 00:47:29;;;;;;;7.43;4.00;;;10.30;99.90;;;;;;10339287;28;20047;-88
2022/04/15 00:52:37;;;;;;;8.73;4.30;;;10.30;99.90;;;;;;10325780;28;20042;-87
2022/04/15 00:57:44;;;;;;;8.30;4.57;;;10.20;99.90;;;;;;10308332;28;20050;-87
2022/04/15 01:02:47;;;;;;;8.65;4.95;;;10.10;99.90;;;;;;10347583;28;20501;-87
2022/04/15 01:07:50;;;;;;;12.52;5.50;;;10.10;99.90;;;;;;10334928;28;20769;-87
2022/04/15 01:12:55;;;;;;;9.65;5.40;;;10.00;99.90;;;;;;10321164;28;20053;-87
2022/04/15 01:18:16;;;;;;;9.60;4.93;;;10.00;99.90;;;;;;10329265;28;20480;-87
2022/04/15 01:23:19;;;;;;;11.07;5.65;;;10.00;99.90;;;;;;10330259;28;20053;-87
2022/04/15 01:28:21;;;;;;;9.75;5.43;;;10.00;99.90;;;;;;10320153;28;20030;-87
2022/04/15 01:33:22;;;;;;;12.88;5.28;;;10.00;99.90;;;;;;10340628;28;20500;-87
2022/04/15 01:38:29;;;;;;;7.45;4.95;;;9.90;99.90;;;;;;10327136;28;20048;-87
2022/04/15 01:43:30;;;;;;;9.73;5.22;;;9.90;99.90;;;;;;10320944;28;20052;-87
2022/04/15 01:48:32;;;;;;;12.35;6.20;;;9.80;99.90;;;;;;10319792;28;20072;-87
2022/04/15 01:53:34;;;;;;;9.20;5.03;;;9.90;99.90;;;;;;10314385;28;20516;-87
2022/04/15 01:58:36;;;;;;;8.23;5.32;;;9.70;99.90;;;;;;10326668;28;20057;-87
2022/04/15 02:03:37;;;;;;;8.60;4.82;;;9.70;99.90;;;;;;10324178;28;20678;-87
2022/04/15 02:08:40;;;;;;;14.95;6.35;;;9.70;99.90;;;;;;10334153;28;20053;-87
2022/04/15 02:13:42;;;;;;;7.68;4.97;;;9.60;99.90;;;;;;10323005;28;20047;-87
2022/04/15 02:18:44;;;;;;;14.13;6.55;;;9.70;99.90;;;;;;10333097;28;20100;-87
2022/04/15 02:23:46;;;;;;;12.68;6.10;;;9.60;99.90;;;;;;10324261;28;20507;-87
2022/04/15 02:28:47;;;;;;;11.43;6.15;;;9.50;99.90;;;;;;10331561;28;20520;-87
2022/04/15 02:33:49;;;;;;;11.45;5.70;;;9.50;99.90;;;;;;10334766;28;20081;-87
2022/04/15 02:38:51;;;;;;;10.82;5.90;;;9.50;99.90;;;;;;10326531;28;20053;-87
2022/04/15 02:43:54;;;;;;;11.38;6.25;;;9.50;99.90;;;;;;10317004;28;20051;-87
2022/04/15 02:48:57;;;;;;;11.30;4.97;;;9.40;99.90;;;;;;10318371;28;20034;-87
2022/04/15 02:53:58;;;;;;;14.88;5.65;;;9.40;99.90;;;;;;10328402;28;20038;-87
2022/04/15 02:59:00;;;;;;;11.45;5.68;;;9.30;99.90;;;;;;10327504;28;20042;-87
2022/04/15 03:04:02;;;;;;;12.40;5.80;;;9.30;99.90;;;;;;10327872;28;20137;-87
2022/04/15 03:09:04;;;;;;;13.50;6.05;;;9.30;99.90;;;;;;10320599;28;20405;-87
2022/04/15 03:14:06;;;;;;;9.75;4.75;;;9.30;99.90;;;;;;10324400;28;20077;-87
2022/04/15 03:19:08;;;;;;;10.93;5.32;;;9.10;99.90;;;;;;10319490;28;20084;-87
2022/04/15 03:24:10;;;;;;;9.38;5.20;;;9.10;99.90;;;;;;10326112;28;20042;-87
2022/04/15 03:29:12;;;;;;;11.65;6.32;;;9.00;99.90;;;;;;10339103;28;20046;-87
2022/04/15 03:34:13;;;;;;;8.27;4.65;;;8.90;99.90;;;;;;10326749;28;20062;-87
2022/04/15 03:39:15;;;;;;;10.65;5.07;;;8.80;99.90;;;;;;10327710;28;20053;-87
2022/04/15 03:44:17;;;;;;;9.57;5.78;;;8.80;99.90;;;;;;10335634;28;20053;-87
2022/04/15 03:49:19;;;;;;;10.50;5.32;;;8.70;99.90;;;;;;10302535;28;20050;-87
2022/04/15 03:54:20;;;;;;;9.98;5.15;;;8.70;99.90;;;;;;10344325;28;20052;-87
2022/04/15 03:59:22;;;;;;;9.95;5.35;;;8.60;99.90;;;;;;10328656;28;20493;-87
2022/04/15 04:04:24;;;;;;;11.43;5.75;;;8.60;99.90;;;;;;10318501;28;20053;-87
2022/04/15 04:09:26;;;;;;;12.57;6.55;;;8.60;99.90;;;;;;10312201;28;20057;-87
2022/04/15 04:14:27;;;;;;;11.52;5.35;;;8.50;99.90;;;;;;10306959;28;20050;-87
2022/04/15 04:19:29;;;;;;;9.55;5.72;;;8.50;99.90;;;;;;10327620;28;20056;-87
2022/04/15 04:24:31;;;;;;;9.52;5.57;;;8.50;99.90;;;;;;10328576;28;20065;-87
2022/04/15 04:29:33;;;;;;;11.40;6.38;;;8.40;99.90;;;;;;10322125;28;20043;-88
2022/04/15 04:34:34;;;;;;;12.85;6.05;;;8.40;99.90;;;;;;10312547;28;20603;-87
2022/04/15 04:39:37;;;;;;;10.40;5.68;;;8.40;99.90;;;;;;10319779;28;20042;-87
2022/04/15 04:44:40;;;;;;;11.90;5.78;;;8.40;99.90;;;;;;10342657;28;20640;-87
2022/04/15 04:49:42;;;;;;;13.02;6.50;;;8.50;99.90;;;;;;10325417;28;20051;-87
2022/04/15 04:54:44;;;;;;;14.85;7.25;;;8.50;99.90;;;;;;10340951;28;20058;-87
2022/04/15 04:59:45;;;;;;;17.00;7.90;;;8.50;99.90;;;;;;10306133;28;20066;-87
2022/04/15 05:04:47;;;;;;;13.32;6.82;;;8.50;99.90;;;;;;10324509;28;22465;-87
2022/04/15 05:09:49;;;;;;;13.63;6.95;;;8.60;99.90;;;;;;10335289;28;20474;-87
2022/04/15 05:14:51;;;;;;;13.43;6.30;;;8.60;99.90;;;;;;10324670;28;20072;-87
2022/04/15 05:19:53;;;;;;;11.23;5.20;;;8.50;99.90;;;;;;10304607;28;20133;-87
2022/04/15 05:24:54;;;;;;;10.65;5.10;;;8.60;99.90;;;;;;10310927;28;20038;-87
2022/04/15 05:29:56;;;;;;;11.30;5.70;;;8.70;99.90;;;;;;10338739;28;20046;-87
2022/04/15 05:34:58;;;;;;;11.20;5.80;;;8.70;99.90;;;;;;10318011;28;20143;-87
2022/04/15 05:40:00;;;;;;;11.40;6.03;;;8.80;99.90;;;;;;10342822;28;20058;-87
2022/04/15 05:45:02;;;;;;;17.27;7.63;;;8.90;99.90;;;;;;10329315;28;20050;-87
2022/04/15 05:50:05;;;;;;;13.18;7.32;;;9.00;99.90;;;;;;10334578;28;20515;-87
2022/04/15 05:55:07;;;;;;;11.95;6.95;;;9.20;99.90;;;;;;10304357;28;20111;-87
2022/04/15 06:00:10;;;;;;;13.73;6.88;;;9.30;99.90;;;;;;10340249;28;20281;-87
2022/04/15 06:05:11;;;;;;;14.32;6.60;;;9.50;99.90;;;;;;10335147;28;20057;-87
2022/04/15 06:10:13;;;;;;;14.70;7.32;;;9.70;99.90;;;;;;10346269;28;20162;-87
2022/04/15 06:15:15;;;;;;;13.10;6.38;;;9.90;99.90;;;;;;10333583;28;20066;-87
2022/04/15 06:20:18;;;;;;;11.05;5.90;;;10.00;99.90;;;;;;10316158;28;20060;-88
2022/04/15 06:25:20;;;;;;;16.15;6.88;;;10.30;99.90;;;;;;10318389;28;20062;-87
2022/04/15 06:30:22;;;;;;;10.98;6.55;;;10.40;99.90;;;;;;10323424;28;20057;-87
2022/04/15 06:35:24;;;;;;;9.90;6.43;;;10.60;99.90;;;;;;10330704;28;20445;-87
2022/04/15 06:40:25;;;;;;;10.25;5.97;;;10.80;99.90;;;;;;10335898;28;20057;-87
2022/04/15 06:45:27;;;;;;;10.75;5.55;;;11.10;99.90;;;;;;10323101;28;20045;-87
2022/04/15 06:50:30;;;;;;;12.13;5.93;;;11.30;99.90;;;;;;10322583;28;20057;-87
2022/04/15 06:55:35;;;;;;;14.77;6.18;;;11.50;99.90;;;;;;10331712;28;20077;-87
2022/04/15 07:00:37;;;;;;;10.77;6.13;;;11.80;99.90;;;;;;10323309;28;20060;-88
2022/04/15 07:05:39;;;;;;;13.45;6.40;;;12.10;99.90;;;;;;10306931;28;20053;-88
2022/04/15 07:10:41;;;;;;;16.17;7.22;;;12.40;99.90;;;;;;10315663;28;20042;-87
2022/04/15 07:15:43;;;;;;;18.30;7.28;;;12.60;99.90;;;;;;10322244;28;20045;-88
2022/04/15 07:20:46;;;;;;;18.25;6.53;;;12.80;99.90;;;;;;10328444;28;20446;-87
2022/04/15 07:25:48;;;;;;;8.20;5.07;;;13.10;99.90;;;;;;10320938;28;20077;-88
2022/04/15 07:30:50;;;;;;;7.80;4.40;;;13.30;99.90;;;;;;10330860;28;20511;-88
2022/04/15 07:35:52;;;;;;;7.90;5.15;;;13.50;99.90;;;;;;10320683;28;20038;-88
2022/04/15 07:40:53;;;;;;;9.55;5.90;;;13.70;99.90;;;;;;10310182;28;20415;-88
2022/04/15 07:45:55;;;;;;;11.00;6.35;;;14.00;99.90;;;;;;10319347;28;20053;-88
2022/04/15 07:50:58;;;;;;;12.43;8.00;;;14.10;99.90;;;;;;10305549;28;20389;-87
2022/04/15 07:56:01;;;;;;;12.18;6.18;;;14.30;99.80;;;;;;10326239;28;20042;-88
2022/04/15 08:01:03;;;;;;;7.57;3.92;;;14.50;98.30;;;;;;10325528;28;20042;-87
2022/04/15 08:06:05;;;;;;;8.20;3.05;;;14.70;97.60;;;;;;10317262;28;20125;-87
2022/04/15 08:11:07;;;;;;;5.88;2.25;;;14.90;95.50;;;;;;10328115;28;20053;-88
2022/04/15 08:16:09;;;;;;;4.18;2.80;;;15.10;94.00;;;;;;10310684;28;20035;-87
2022/04/15 08:21:11;;;;;;;7.07;2.67;;;15.10;91.30;;;;;;10326346;28;20026;-87
2022/04/15 08:26:13;;;;;;;6.50;2.80;;;15.30;89.50;;;;;;10318446;28;20130;-87
2022/04/15 08:31:15;;;;;;;6.30;2.50;;;15.40;88.50;;;;;;10328263;28;20049;-87
2022/04/15 08:36:17;;;;;;;3.83;2.15;;;15.70;89.10;;;;;;10323213;28;20046;-87
2022/04/15 08:41:21;;;;;;;3.33;2.20;;;15.80;87.40;;;;;;10309899;28;20058;-87
2022/04/15 08:46:23;;;;;;;6.22;2.47;;;16.00;86.70;;;;;;10330175;28;20046;-88
2022/04/15 08:51:26;;;;;;;3.28;1.75;;;16.20;84.40;;;;;;10308919;28;20054;-87
2022/04/15 08:56:28;;;;;;;4.55;1.98;;;16.30;81.80;;;;;;10324633;28;20132;-87
2022/04/15 09:01:31;;;;;;;3.42;1.35;;;16.50;82.20;;;;;;10325169;28;20493;-88
2022/04/15 09:06:34;;;;;;;8.48;1.80;;;16.60;81.60;;;;;;10320101;28;20064;-87
2022/04/15 09:11:37;;;;;;;5.97;1.77;;;16.70;81.70;;;;;;10328817;28;20576;-87
2022/04/15 09:16:41;;;;;;;3.47;0.68;;;17.00;79.70;;;;;;10322194;28;20048;-88
2022/04/15 09:21:57;;;;;;;0.40;0.28;;;16.90;73.50;;;;;;10333575;28;20054;-88
2022/04/15 09:27:03;;;;;;;2.25;0.40;;;16.70;69.20;;;;;;10351327;28;20048;-87
2022/04/15 09:32:10;;;;;;;1.93;0.20;;;16.70;70.40;;;;;;10369377;23;20452;-63
2022/04/15 09:37:17;;;;;;;2.00;0.30;;;16.80;69.60;;;;;;10352760;28;20738;-62
2022/04/15 09:42:26;;;;;;;0.50;0.20;;;16.90;69.20;;;;;;10351073;28;20108;-63
2022/04/15 09:47:30;;;;;;;0.35;0.13;;;16.80;64.30;;;;;;10367650;28;20056;-62
2022/04/15 09:52:32;;;;;;;0.60;0.10;;;17.10;63.70;;;;;;10364646;28;20053;-62
2022/04/15 09:57:34;;;;;;;0.50;0.20;;;17.40;61.60;;;;;;10348355;28;20053;-62
2022/04/15 10:02:39;;;;;;;2.40;0.30;;;17.70;59.80;;;;;;10345473;28;20054;-62
2022/04/15 10:07:41;;;;;;;1.27;0.10;;;18.10;60.30;;;;;;10332570;28;20504;-62
2022/04/15 10:12:45;;;;;;;1.75;0.20;;;18.10;60.10;;;;;;10338130;28;20060;-62
2022/04/15 10:17:47;;;;;;;1.40;0.20;;;18.10;59.60;;;;;;10323745;28;20041;-62
2022/04/15 10:22:50;;;;;;;0.77;0.17;;;18.10;59.70;;;;;;10318591;28;20061;-63
2022/04/15 10:27:52;;;;;;;1.13;0.30;;;18.20;57.70;;;;;;10322659;28;20480;-62
2022/04/15 10:32:57;;;;;;;1.95;0.30;;;18.60;57.50;;;;;;10316863;28;20042;-62
2022/04/15 10:38:17;;;;;;;1.00;0.30;;;18.50;57.40;;;;;;10329546;28;20046;-62
2022/04/15 10:43:24;;;;;;;2.50;0.30;;;18.10;58.50;;;;;;10331672;28;20054;-62
2022/04/15 10:48:32;;;;;;;3.58;0.30;;;18.90;59.40;;;;;;10310901;28;20531;-61
2022/04/15 10:53:34;;;;;;;2.15;0.30;;;19.10;57.40;;;;;;10314179;28;20042;-62
2022/04/15 11:01:13;;;;;;;2.78;0.60;;;18.90;57.50;;;;;;10317423;28;20058;-61
2022/04/15 11:04:10;;;;;;;1.67;0.28;;;18.90;56.60;;;;;;10307893;28;20120;-62
2022/04/15 11:09:15;;;;;;;1.13;0.30;;;18.80;56.90;;;;;;10325369;28;20097;-62
2022/04/15 11:14:17;;;;;;;0.88;0.20;;;19.20;56.10;;;;;;10320772;28;20065;-62
2022/04/15 11:19:24;;;;;;;0.93;0.20;;;19.30;57.10;;;;;;10324190;28;20078;-61
2022/04/15 11:24:26;;;;;;;;;;;19.30;53.70;;;;;;10335272;28;20713;-61
2022/04/15 11:29:30;;;;;;;0.68;0.10;;;19.90;55.20;;;;;;10320779;28;19922;-62
2022/04/15 11:34:32;;;;;;;1.02;0.20;;;20.00;54.00;;;;;;10327468;28;20099;-62
2022/04/15 11:39:35;;;;;;;0.10;0.10;;;19.90;53.00;;;;;;10323185;28;20038;-62
2022/04/15 11:44:37;;;;;;;1.55;0.20;;;20.00;52.70;;;;;;10323781;28;20057;-62
2022/04/15 11:49:41;;;;;;;1.45;0.20;;;20.30;53.50;;;;;;10307619;28;20077;-62
2022/04/15 11:54:43;;;;;;;0.68;0.10;;;20.40;53.10;;;;;;10318444;28;20107;-62
2022/04/15 11:59:46;;;;;;;0.95;0.28;;;20.50;52.00;;;;;;10322397;28;20058;-61
2022/04/15 12:04:53;;;;;;;2.35;0.30;;;20.70;51.30;;;;;;10311286;28;20050;-61
2022/04/15 12:09:54;;;;;;;0.20;0.10;;;20.70;52.20;;;;;;10328555;28;20419;-62
2022/04/15 12:14:56;;;;;;;0.40;0.20;;;19.40;52.10;;;;;;10313640;28;20046;-61
2022/04/15 12:19:58;;;;;;;2.72;0.20;;;19.70;52.80;;;;;;10323974;28;20092;-62
2022/04/15 12:25:14;;;;;;;1.00;0.20;;;20.30;51.90;;;;;;10319981;28;20096;-61
2022/04/15 12:30:37;;;;;;;2.05;0.13;;;20.80;51.40;;;;;;10307088;28;20050;-62
2022/04/15 12:36:00;;;;;;;0.98;0.20;;;21.20;51.40;;;;;;10327859;28;20096;-61
2022/04/15 12:41:12;;;;;;;1.30;0.22;;;21.50;49.00;;;;;;10319482;28;20053;-62
2022/04/15 12:46:17;;;;;;;1.38;0.30;;;21.00;49.70;;;;;;10323610;28;20115;-61
2022/04/15 12:51:19;;;;;;;1.10;0.30;;;20.80;50.00;;;;;;10320913;28;20073;-62
2022/04/15 12:56:23;;;;;;;0.80;0.40;;;20.90;50.70;;;;;;10326123;28;20054;-61
2022/04/15 13:01:25;;;;;;;0.30;0.10;;;21.30;50.50;;;;;;10310780;28;20054;-62
2022/04/15 13:06:27;;;;;;;0.57;0.30;;;21.70;49.40;;;;;;10312831;28;20377;-62
2022/04/15 13:11:28;;;;;;;2.15;0.30;;;21.60;50.10;;;;;;10321378;28;20509;-62
2022/04/15 13:16:31;;;;;;;0.95;0.20;;;21.70;49.00;;;;;;10322854;28;20677;-62
2022/04/15 13:21:33;;;;;;;2.22;0.30;;;21.70;48.50;;;;;;10313404;28;20129;-62
2022/04/15 13:26:35;;;;;;;1.90;0.30;;;21.30;49.50;;;;;;10316410;28;20520;-63
2022/04/15 13:31:37;;;;;;;0.88;0.30;;;21.20;50.10;;;;;;10307242;28;20107;-61
2022/04/15 13:36:39;;;;;;;1.45;0.30;;;21.10;50.00;;;;;;10316911;28;20493;-61
2022/04/15 13:41:41;;;;;;;1.33;0.40;;;21.20;50.10;;;;;;10323820;28;20082;-61
2022/04/15 13:46:43;;;;;;;1.25;0.40;;;20.70;50.20;;;;;;10327040;28;20046;-62
2022/04/15 13:51:50;;;;;;;0.90;0.35;;;21.10;51.60;;;;;;10322167;28;20056;-62
2022/04/15 13:56:51;;;;;;;1.90;0.50;;;21.10;51.80;;;;;;10332306;28;20069;-62
2022/04/15 14:01:53;;;;;;;2.35;0.40;;;20.90;51.60;;;;;;10330351;28;20070;-62
2022/04/15 14:06:55;;;;;;;2.95;0.55;;;20.70;52.70;;;;;;10310422;28;20057;-62
2022/04/15 14:11:56;;;;;;;1.10;0.40;;;20.50;52.60;;;;;;10326833;28;20051;-62
2022/04/15 14:16:58;;;;;;;1.33;0.50;;;20.20;57.80;;;;;;10330267;28;20441;-62
2022/04/15 14:22:00;;;;;;;1.65;0.50;;;20.10;57.80;;;;;;10328026;28;20104;-62
2022/04/15 14:27:01;;;;;;;1.88;0.60;;;19.60;58.90;;;;;;10296727;28;20093;-62
2022/04/15 14:32:03;;;;;;;1.15;0.50;;;19.30;59.20;;;;;;10327303;28;20097;-62
2022/04/15 14:37:05;;;;;;;3.53;0.68;;;18.90;60.30;;;;;;10327097;28;20595;-62
2022/04/15 14:42:07;;;;;;;2.38;0.98;;;19.10;60.00;;;;;;10319455;28;20058;-62
2022/04/15 14:47:09;;;;;;;2.15;1.00;;;19.20;60.50;;;;;;10319600;28;20074;-62
2022/04/15 14:52:10;;;;;;;3.90;1.17;;;19.30;59.40;;;;;;10323434;28;20043;-62
2022/04/15 14:57:13;;;;;;;1.85;0.93;;;19.40;59.30;;;;;;10318364;28;20112;-62
2022/04/15 15:02:15;;;;;;;3.63;1.17;;;19.40;58.50;;;;;;10334418;28;20493;-62
2022/04/15 15:07:17;;;;;;;2.97;1.45;;;19.60;58.40;;;;;;10331582;28;20065;-62
2022/04/15 15:12:19;;;;;;;1.23;0.80;;;19.10;57.80;;;;;;10307028;28;20512;-61
2022/04/15 15:17:21;;;;;;;3.10;1.27;;;19.30;57.70;;;;;;10318904;28;20080;-61
2022/04/15 15:22:22;;;;;;;3.08;1.20;;;19.10;57.90;;;;;;10317521;28;20305;-62
2022/04/15 15:32:45;;;;;;;4.53;1.40;;;18.30;59.00;;;;;;10321512;28;20054;-62
2022/04/15 15:37:46;;;;;;;4.53;1.67;;;18.10;59.70;;;;;;10301773;28;20112;-61
2022/04/15 15:42:48;;;;;;;2.83;0.88;;;18.20;60.10;;;;;;10312409;28;20080;-61
2022/04/15 15:47:50;;;;;;;3.60;1.15;;;18.10;59.10;;;;;;10314461;28;20120;-61
2022/04/15 15:52:52;;;;;;;2.00;0.82;;;17.70;60.00;;;;;;10309440;28;20054;-61
2022/04/15 15:57:54;;;;;;;2.45;0.93;;;17.70;59.50;;;;;;10304547;28;20050;-61
2022/04/15 16:02:56;;;;;;;2.72;0.70;;;17.40;59.60;;;;;;10323635;28;20492;-62
2022/04/15 16:07:58;;;;;;;1.73;0.75;;;17.50;60.10;;;;;;10312870;28;20046;-61
2022/04/15 16:13:01;;;;;;;0.50;0.40;;;17.40;59.90;;;;;;10322754;28;20452;-62
2022/04/15 16:18:04;;;;;;;2.03;0.40;;;17.50;59.30;;;;;;10314870;28;20497;-62
2022/04/15 16:23:06;;;;;;;0.70;0.45;;;17.40;59.60;;;;;;10322014;28;20058;-62
2022/04/15 16:28:08;;;;;;;1.38;0.40;;;17.30;60.10;;;;;;10317698;28;20072;-62
2022/04/15 16:33:10;;;;;;;0.80;0.40;;;17.00;59.70;;;;;;10328092;28;20046;-62
2022/04/15 16:38:12;;;;;;;1.63;0.50;;;16.80;59.50;;;;;;10316095;28;20373;-62
2022/04/15 16:43:20;;;;;;;0.47;0.30;;;16.60;59.70;;;;;;10323392;28;20497;-60
2022/04/15 16:48:22;;;;;;;0.40;0.30;;;16.50;61.20;;;;;;10334364;28;20054;-59
2022/04/15 16:53:24;;;;;;;1.40;0.40;;;16.20;61.30;;;;;;10304605;28;20489;-60
2022/04/15 16:58:45;;;;;;;0.77;0.40;;;16.10;61.80;;;;;;10324310;28;20044;-62
2022/04/15 17:03:48;;;;;;;;;;;15.80;62.00;;;;;;10319224;28;20065;-61
2022/04/15 17:08:50;;;;;;;1.10;0.50;;;15.60;62.40;;;;;;10300245;28;19988;-62
2022/04/15 17:13:52;;;;;;;0.77;0.30;;;15.40;63.00;;;;;;10327853;28;20156;-61
2022/04/15 17:18:54;;;;;;;0.80;0.40;;;15.20;63.50;;;;;;10322137;28;20053;-61
2022/04/15 17:23:56;;;;;;;2.97;0.30;;;15.20;63.70;;;;;;10330183;28;20050;-61
2022/04/15 17:28:58;;;;;;;0.70;0.40;;;15.00;64.10;;;;;;10319074;28;20050;-62
2022/04/15 17:34:00;;;;;;;0.60;0.30;;;14.80;64.80;;;;;;10327331;28;20056;-62
2022/04/15 17:39:02;;;;;;;0.85;0.30;;;14.40;65.90;;;;;;10318116;28;20100;-62
2022/04/15 17:44:04;;;;;;;1.77;0.40;;;14.10;67.20;;;;;;10328896;28;20440;-62
2022/04/15 17:49:08;;;;;;;0.95;0.50;;;13.90;67.40;;;;;;10327242;28;20134;-62
2022/04/15 17:54:10;;;;;;;0.70;0.32;;;13.60;68.40;;;;;;10325085;28;20127;-62
2022/04/15 17:59:11;;;;;;;1.00;0.38;;;13.40;69.20;;;;;;10325957;28;20055;-62
2022/04/15 18:04:13;;;;;;;0.55;0.32;;;13.30;70.20;;;;;;10334118;28;20054;-63
2022/04/15 18:09:15;;;;;;;1.27;0.40;;;13.10;71.20;;;;;;10332807;28;20562;-62
2022/04/15 18:14:17;;;;;;;0.75;0.40;;;12.90;72.30;;;;;;10321039;28;20492;-63
2022/04/15 18:19:18;;;;;;;1.50;0.40;;;12.70;73.10;;;;;;10312341;28;20099;-62
2022/04/15 18:24:24;;;;;;;0.77;0.40;;;12.50;73.80;;;;;;10326562;28;20053;-57
2022/04/15 18:29:26;;;;;;;1.17;0.47;;;12.40;74.50;;;;;;10319554;28;20085;-58
2022/04/15 18:34:29;;;;;;;0.70;0.50;;;12.20;74.80;;;;;;10327445;28;20501;-57
2022/04/15 18:39:31;;;;;;;1.10;0.40;;;12.00;75.70;;;;;;10305288;28;20099;-56
2022/04/15 18:44:32;;;;;;;1.80;0.40;;;11.90;77.50;;;;;;10323134;28;20041;-57
2022/04/15 18:55:22;;;;;;;2.05;0.45;;;11.60;78.40;;;;;;10330519;28;20906;-56
2022/04/15 19:00:24;;;;;;;1.15;0.47;;;11.50;79.30;;;;;;10316612;28;20046;-57
2022/04/15 19:05:27;;;;;;;0.80;0.40;;;11.40;80.00;;;;;;10314431;28;20153;-57
2022/04/15 19:10:29;;;;;;;1.95;0.60;;;11.30;80.50;;;;;;10317696;28;20469;-58
2022/04/15 19:15:32;;;;;;;0.70;0.30;;;11.30;81.30;;;;;;10321340;28;20497;-58
2022/04/15 19:20:35;;;;;;;1.38;0.40;;;11.10;82.40;;;;;;10326945;28;20046;-58
2022/04/15 19:25:38;;;;;;;1.48;0.60;;;11.00;83.00;;;;;;10322789;28;20105;-58
2022/04/15 19:30:41;;;;;;;1.00;0.77;;;11.00;83.80;;;;;;10328269;28;20048;-58
2022/04/15 19:35:43;;;;;;;1.90;0.73;;;10.90;84.00;;;;;;10317441;28;20042;-57
2022/04/15 19:40:45;;;;;;;1.63;0.40;;;10.90;84.70;;;;;;10304548;28;20047;-57
2022/04/15 19:45:46;;;;;;;1.23;0.60;;;10.80;85.60;;;;;;10328490;28;20693;-57
2022/04/15 19:50:48;;;;;;;2.20;0.50;;;10.80;86.40;;;;;;10328067;28;20046;-57
2022/04/15 19:55:50;;;;;;;1.10;0.60;;;10.70;86.90;;;;;;10307419;28;20509;-57
2022/04/15 20:01:03;;;;;;;1.25;0.50;;;10.70;88.00;;;;;;10314452;28;20053;-57
2022/04/15 20:06:07;;;;;;;1.33;0.73;;;10.60;88.50;;;;;;10311539;28;20058;-59
2022/04/15 20:11:09;;;;;;;2.40;1.00;;;10.60;88.30;;;;;;10315408;28;20947;-57
2022/04/15 20:16:11;;;;;;;1.20;0.50;;;10.60;89.00;;;;;;10318182;28;20042;-57
2022/04/15 20:21:13;;;;;;;1.35;0.60;;;10.50;89.40;;;;;;10295326;28;20042;-57
2022/04/15 20:26:15;;;;;;;1.13;0.60;;;10.50;90.00;;;;;;10319410;28;20050;-58
2022/04/15 20:31:17;;;;;;;2.25;0.70;;;10.40;90.20;;;;;;10322070;28;20417;-58
2022/04/15 20:36:19;;;;;;;1.27;0.70;;;10.40;90.60;;;;;;10322017;28;20066;-57
2022/04/15 20:41:21;;;;;;;1.17;0.70;;;10.30;91.10;;;;;;10324929;28;20058;-57
2022/04/15 20:46:23;;;;;;;2.28;0.90;;;10.20;91.60;;;;;;10302863;28;20050;-58
2022/04/15 20:51:25;;;;;;;1.63;0.98;;;10.20;91.90;;;;;;10320064;28;20271;-57
2022/04/15 20:56:27;;;;;;;3.35;1.48;;;10.10;92.20;;;;;;10320212;28;20123;-59
2022/04/15 21:01:29;;;;;;;3.25;1.30;;;10.10;92.40;;;;;;10329972;28;20100;-57
2022/04/15 21:06:30;;;;;;;3.10;1.20;;;10.10;92.30;;;;;;10337172;28;20045;-58
2022/04/15 21:11:32;;;;;;;2.22;1.10;;;10.00;92.40;;;;;;10305270;28;20054;-57
2022/04/15 21:16:34;;;;;;;2.70;1.30;;;10.00;92.40;;;;;;10322658;28;20112;-57
2022/04/15 21:21:40;;;;;;;3.35;1.33;;;10.00;92.70;;;;;;10308799;28;20081;-57
2022/04/15 21:26:41;;;;;;;3.17;1.25;;;9.90;92.70;;;;;;10324782;28;20057;-57
2022/04/15 21:31:43;;;;;;;1.70;0.98;;;9.90;92.80;;;;;;10323011;28;20488;-57
2022/04/15 21:36:45;;;;;;;1.88;0.88;;;9.80;93.20;;;;;;10331143;28;20134;-57
2022/04/15 21:41:47;;;;;;;4.90;0.70;;;9.80;93.50;;;;;;10325830;28;20049;-57
2022/04/15 21:46:49;;;;;;;1.25;0.65;;;9.70;93.90;;;;;;10331820;28;20039;-58
2022/04/15 21:57:14;;;;;;;2.15;0.65;;;9.60;94.50;;;;;;10325716;28;20709;-56
2022/04/15 22:02:20;;;;;;;1.77;0.50;;;9.60;94.80;;;;;;10326861;28;20057;-57
2022/04/15 22:07:22;;;;;;;1.42;0.80;;;9.50;94.90;;;;;;10325070;28;20050;-56
2022/04/15 22:12:23;;;;;;;1.85;0.60;;;9.50;95.00;;;;;;10319997;28;20101;-56
2022/04/15 22:17:25;;;;;;;1.73;0.60;;;9.50;95.10;;;;;;10322773;28;20046;-57
2022/04/15 22:22:27;;;;;;;0.93;0.60;;;9.50;95.60;;;;;;10322404;28;20124;-57
2022/04/15 22:27:29;;;;;;;2.55;1.00;;;9.50;95.70;;;;;;10318792;28;20050;-57
2022/04/15 22:32:30;;;;;;;1.00;0.52;;;9.60;96.00;;;;;;10328314;28;20493;-57
2022/04/15 22:37:33;;;;;;;3.92;1.20;;;9.60;96.50;;;;;;10322983;28;20501;-56
2022/04/15 22:42:34;;;;;;;1.98;0.93;;;9.60;96.90;;;;;;10303054;28;20059;-56
2022/04/15 22:47:38;;;;;;;1.75;0.77;;;9.70;97.10;;;;;;10320044;28;20508;-57
2022/04/15 22:52:40;;;;;;;4.60;0.80;;;9.80;96.90;;;;;;10321351;28;20061;-58
2022/04/15 22:57:43;;;;;;;1.92;0.80;;;9.90;97.10;;;;;;10316655;28;20109;-57
2022/04/15 23:02:45;;;;;;;2.10;0.85;;;9.90;97.30;;;;;;10311757;28;20050;-56
2022/04/15 23:07:46;;;;;;;2.08;0.98;;;10.00;98.20;;;;;;10324190;28;20047;-56
2022/04/15 23:12:48;;;;;;;1.90;0.90;;;10.00;98.00;;;;;;10327333;28;20078;-57
2022/04/15 23:17:50;;;;;;;2.67;1.00;;;10.10;98.10;;;;;;10323241;28;20046;-57
2022/04/15 23:22:52;;;;;;;2.58;1.02;;;10.10;98.30;;;;;;10315777;28;20042;-57
2022/04/15 23:27:54;;;;;;;1.77;1.10;;;10.20;98.10;;;;;;10316519;28;20054;-57
2022/04/15 23:32:56;;;;;;;1.52;0.93;;;10.20;98.10;;;;;;10317907;28;20046;-57
2022/04/15 23:37:58;;;;;;;2.40;1.10;;;10.30;97.80;;;;;;10315613;28;20058;-57
2022/04/15 23:43:00;;;;;;;3.67;0.90;;;10.30;97.90;;;;;;10324101;28;20045;-57
2022/04/15 23:53:22;;;;;;;1.80;0.90;;;10.40;98.40;;;;;;10326396;28;20046;-56
2022/04/15 23:58:24;;;;;;;2.17;0.90;;;10.40;98.80;;;;;;10329283;28;20049;-56
